Terminal Aerodrome Forecast
Issued by NWS Chicago, IL

Home | Current Version | Previous Version | Text Only | Print | Product List | Glossary On
Versions: 1 2 3 4 5 6 7 8 9 10 11 12 13 14 15 16 17 18 19 20 21 22 23 24 25 26 27 28 29 30 31 32 33
000
FTUS43 KLOT 181700
TAFRFD
TAF
KRFD 181723Z 1818/1918 07009KT P6SM SCT025
     FM190000 09006KT P6SM FEW020
     FM190600 12005KT 3SM BR SKC
     FM191600 18012G20KT P6SM SCT250=

USA.gov is the U.S. government's official web portal to all federal, state and local government web resources and services.